Time;durP1;ratioP1;P1;durP2;ratioP2;P2;SDS_P1;SDS_P2;PMS_P1;PMS_P2;Temp;Humidity;BMP_temperature;BMP_pressure;BME280_temperature;BME280_humidity;BME280_pressure;Samples;Min_cycle;Max_cycle;Signal;HPM_P1;HPM_P2
2022/07/22 00:01:33;;;;;;;9.80;5.35;;;;;;;16.21;100.00;98160.65;1717737;83;21094;-79
2022/07/22 00:04:01;;;;;;;11.05;5.35;;;;;;;16.20;100.00;98154.08;1718139;83;21491;-79
2022/07/22 00:06:29;;;;;;;11.60;5.37;;;;;;;16.19;100.00;98151.91;1717776;83;21044;-78
2022/07/22 00:08:56;;;;;;;8.85;5.08;;;;;;;16.18;100.00;98158.97;1732822;81;21013;-79
2022/07/22 00:11:24;;;;;;;9.35;5.47;;;;;;;16.19;100.00;98151.09;1760764;81;21030;-79
2022/07/22 00:13:51;;;;;;;12.20;5.83;;;;;;;16.19;100.00;98148.36;1761131;81;20971;-79
2022/07/22 00:16:19;;;;;;;10.18;6.08;;;;;;;16.19;100.00;98136.09;1760903;81;21007;-78
2022/07/22 00:18:48;;;;;;;9.05;5.08;;;;;;;16.19;100.00;98141.55;1761064;81;21131;-78
2022/07/22 00:21:15;;;;;;;8.00;5.58;;;;;;;16.20;100.00;98138.57;1760779;81;20999;-79
2022/07/22 00:23:42;;;;;;;8.48;5.05;;;;;;;16.24;100.00;98137.52;1760923;81;21006;-79
2022/07/22 00:26:10;;;;;;;9.90;5.20;;;;;;;16.28;100.00;98131.83;1760913;81;20971;-79
2022/07/22 00:28:36;;;;;;;8.88;5.28;;;;;;;16.31;100.00;98121.78;1760946;81;21104;-79
2022/07/22 00:31:04;;;;;;;11.55;4.87;;;;;;;16.32;100.00;98111.14;1760771;81;21034;-80
2022/07/22 00:33:32;;;;;;;10.45;4.65;;;;;;;16.33;100.00;98114.17;1760656;81;21058;-79
2022/07/22 00:36:00;;;;;;;10.28;4.97;;;;;;;16.33;100.00;98104.63;1779720;80;21518;-78
2022/07/22 00:38:27;;;;;;;6.55;4.33;;;;;;;16.32;100.00;98117.45;1793392;80;21051;-79
2022/07/22 00:40:54;;;;;;;6.95;4.67;;;;;;;16.30;100.00;98120.13;1793272;80;20957;-78
2022/07/22 00:43:21;;;;;;;7.50;4.45;;;;;;;16.29;100.00;98119.86;1793291;80;21008;-77
2022/07/22 00:45:48;;;;;;;7.28;4.17;;;;;;;16.28;100.00;98110.83;1792905;80;21024;-78
2022/07/22 00:48:16;;;;;;;5.75;4.60;;;;;;;16.28;100.00;98113.56;1793043;80;21032;-78
2022/07/22 00:50:42;;;;;;;7.62;4.92;;;;;;;16.27;100.00;98107.84;1793275;80;21001;-78
2022/07/22 00:53:10;;;;;;;6.08;4.70;;;;;;;16.29;100.00;98107.59;1792555;80;21044;-79
2022/07/22 00:55:37;;;;;;;6.47;4.35;;;;;;;16.33;100.00;98102.71;1790237;80;21033;-77
2022/07/22 00:58:05;;;;;;;6.80;4.37;;;;;;;16.38;100.00;98099.75;1778742;80;21048;-77
2022/07/22 01:00:33;;;;;;;4.62;3.98;;;;;;;16.40;100.00;98084.79;1778727;80;21029;-77
2022/07/22 01:03:00;;;;;;;6.22;4.25;;;;;;;16.44;100.00;98079.64;1778872;80;21012;-79
2022/07/22 01:05:28;;;;;;;6.33;4.60;;;;;;;16.48;100.00;98082.13;1778784;80;21044;-78
2022/07/22 01:07:55;;;;;;;6.92;4.30;;;;;;;16.50;100.00;98080.81;1778909;80;21068;-77
2022/07/22 01:10:22;;;;;;;7.37;4.47;;;;;;;16.53;100.00;98065.81;1778890;81;21040;-79
2022/07/22 01:12:51;;;;;;;5.50;4.37;;;;;;;16.57;100.00;98056.02;1778903;80;21459;-78
2022/07/22 01:15:18;;;;;;;10.08;5.00;;;;;;;16.59;100.00;98057.98;1779131;80;21075;-79
2022/07/22 01:17:45;;;;;;;7.00;4.45;;;;;;;16.62;100.00;98051.17;1778835;80;21048;-78
2022/07/22 01:20:12;;;;;;;8.40;4.70;;;;;;;16.64;100.00;98041.66;1779039;80;21040;-79
2022/07/22 01:22:40;;;;;;;8.10;4.90;;;;;;;16.66;100.00;98037.28;1779029;80;20996;-78
2022/07/22 01:25:07;;;;;;;8.35;4.40;;;;;;;16.68;100.00;98014.67;1779231;81;21024;-79
2022/07/22 01:27:34;;;;;;;6.35;4.53;;;;;;;16.68;100.00;98011.95;1779239;81;21365;-79
2022/07/22 01:30:06;;;;;;;8.88;4.20;;;;;;;16.67;100.00;98005.64;1779339;80;20986;-89
2022/07/22 01:32:33;;;;;;;7.22;4.65;;;;;;;16.64;100.00;98012.16;1749489;82;21033;-89
2022/07/22 01:35:00;;;;;;;6.97;4.37;;;;;;;16.58;100.00;98011.30;1749172;82;21073;-89
2022/07/22 01:37:28;;;;;;;7.58;4.42;;;;;;;16.52;100.00;98008.27;1746504;82;21013;-89
2022/07/22 01:39:56;;;;;;;7.85;4.28;;;;;;;16.48;100.00;98009.33;1745967;82;20993;-89
2022/07/22 01:42:24;;;;;;;5.78;4.47;;;;;;;16.44;100.00;98004.08;1746090;82;20997;-89
2022/07/22 01:44:52;;;;;;;9.58;4.65;;;;;;;16.44;100.00;98004.08;1746190;82;21564;-89
2022/07/22 01:47:20;;;;;;;10.13;4.55;;;;;;;16.45;100.00;98008.47;1745601;82;21072;-90
2022/07/22 01:49:47;;;;;;;7.17;4.72;;;;;;;16.45;100.00;98011.20;1745977;82;20970;-89
2022/07/22 01:52:16;;;;;;;6.72;4.62;;;;;;;16.48;100.00;98013.94;1746001;82;21052;-89
2022/07/22 01:54:43;;;;;;;6.72;4.40;;;;;;;16.48;100.00;98005.23;1745898;82;21012;-89
2022/07/22 01:57:11;;;;;;;7.95;4.70;;;;;;;16.49;100.00;98008.22;1745918;82;21020;-89
2022/07/22 01:59:40;;;;;;;6.72;4.40;;;;;;;16.51;100.00;98011.51;1741875;82;21037;-87
2022/07/22 02:02:07;;;;;;;9.43;5.22;;;;;;;16.50;100.00;98004.42;1745227;82;21013;-88
2022/07/22 02:04:34;;;;;;;7.78;4.50;;;;;;;16.51;100.00;98001.15;1745603;82;21051;-86
2022/07/22 02:07:02;;;;;;;6.42;4.35;;;;;;;16.50;100.00;98001.70;1745824;82;21084;-88
2022/07/22 02:09:30;;;;;;;6.92;4.40;;;;;;;16.49;100.00;97995.14;1745566;82;21037;-85
2022/07/22 02:11:58;;;;;;;5.28;4.20;;;;;;;16.49;100.00;98001.41;1745878;82;21056;-89
2022/07/22 02:14:25;;;;;;;7.25;4.67;;;;;;;16.47;100.00;97994.03;1721347;82;20985;-88
2022/07/22 02:16:53;;;;;;;7.15;4.67;;;;;;;16.47;100.00;97989.13;1721250;82;21033;-87
2022/07/22 02:19:20;;;;;;;6.03;4.42;;;;;;;16.45;100.00;97989.89;1745729;82;20985;-87
2022/07/22 02:21:47;;;;;;;7.20;4.20;;;;;;;16.44;100.00;97990.45;1745488;82;21086;-88
2022/07/22 02:24:14;;;;;;;8.85;5.00;;;;;;;16.44;100.00;97991.00;1745341;82;21456;-86
2022/07/22 02:26:41;;;;;;;5.83;4.67;;;;;;;16.44;100.00;97989.63;1745565;82;21028;-86
2022/07/22 02:29:10;;;;;;;7.97;4.47;;;;;;;16.43;100.00;97982.52;1745470;82;20992;-86
2022/07/22 02:31:39;;;;;;;9.10;4.75;;;;;;;16.44;100.00;97987.72;1745480;82;21020;-87
2022/07/22 02:34:08;;;;;;;9.30;4.72;;;;;;;16.44;100.00;97979.53;1745448;82;21036;-88
2022/07/22 02:36:36;;;;;;;8.78;4.80;;;;;;;16.42;100.00;97976.25;1763213;80;21009;-87
2022/07/22 02:39:04;;;;;;;6.55;4.58;;;;;;;16.43;100.00;97971.09;1773183;80;21001;-87
2022/07/22 02:41:31;;;;;;;8.43;4.72;;;;;;;16.43;100.00;97971.09;1773588;81;21025;-89
2022/07/22 02:43:59;;;;;;;7.87;5.08;;;;;;;16.44;100.00;97971.91;1730585;83;21128;-85
2022/07/22 02:46:30;;;;;;;5.35;4.40;;;;;;;16.44;100.00;97974.08;1730679;82;21042;-88
2022/07/22 02:48:59;;;;;;;5.85;4.55;;;;;;;16.42;100.00;97972.16;1743725;82;20964;-88
2022/07/22 02:51:26;;;;;;;7.28;4.90;;;;;;;16.43;100.00;97969.73;1747523;82;21078;-90
2022/07/22 02:53:54;;;;;;;8.90;4.97;;;;;;;16.46;100.00;97973.83;1724835;82;21055;-89
2022/07/22 02:56:21;;;;;;;6.72;4.55;;;;;;;16.47;100.00;97970.84;1752375;82;21042;-88
2022/07/22 02:58:51;;;;;;;7.20;4.90;;;;;;;16.48;100.00;97962.11;1756401;82;21035;-88
2022/07/22 03:01:17;;;;;;;5.65;4.47;;;;;;;16.47;100.00;97958.56;1756295;80;21016;-90
2022/07/22 03:03:46;;;;;;;7.72;5.20;;;;;;;16.50;100.00;97949.02;1667723;86;20995;-87
2022/07/22 03:06:13;;;;;;;8.15;4.60;;;;;;;16.53;100.00;97949.88;1668188;85;21046;-87
2022/07/22 03:08:46;;;;;;;8.85;4.70;;;;;;;16.57;100.00;97932.44;1647157;86;21047;-88
2022/07/22 03:11:14;;;;;;;8.63;4.97;;;;;;;16.58;100.00;97939.00;1647836;83;22079;-88
2022/07/22 03:13:42;;;;;;;7.45;5.05;;;;;;;16.58;100.00;97930.82;1655013;83;21034;-88
2022/07/22 03:16:09;;;;;;;6.58;4.47;;;;;;;16.58;100.00;97932.19;1653865;87;21088;-87
2022/07/22 03:18:37;;;;;;;7.40;4.67;;;;;;;16.60;100.00;97935.47;1631578;87;21015;-88
2022/07/22 03:21:05;;;;;;;8.08;5.08;;;;;;;16.61;100.00;97930.83;1653399;87;21035;-89
2022/07/22 03:23:31;;;;;;;7.95;5.22;;;;;;;16.63;100.00;97931.41;1652508;87;21072;-88
2022/07/22 03:25:59;;;;;;;10.53;5.20;;;;;;;16.65;100.00;97924.59;1652669;87;21086;-88
2022/07/22 03:28:27;;;;;;;9.43;5.25;;;;;;;16.68;100.00;97924.08;1652380;86;21091;-87
2022/07/22 03:30:54;;;;;;;6.65;5.08;;;;;;;16.73;100.00;97926.55;1652556;87;21621;-88
2022/07/22 03:33:21;;;;;;;10.40;5.53;;;;;;;16.75;100.00;97917.03;1630504;87;21043;-88
2022/07/22 03:35:48;;;;;;;11.20;5.70;;;;;;;16.77;100.00;97916.23;1649831;87;21092;-89
2022/07/22 03:38:17;;;;;;;8.30;5.72;;;;;;;16.77;100.00;97925.78;1618118;88;21189;-86
2022/07/22 03:40:45;;;;;;;8.53;6.05;;;;;;;16.80;100.00;97917.59;1617046;88;21087;-87
2022/07/22 03:43:13;;;;;;;10.28;6.10;;;;;;;16.81;100.00;97924.70;1616869;88;21067;-85
2022/07/22 03:45:41;;;;;;;9.60;5.90;;;;;;;16.83;100.00;97923.89;1639166;88;21127;-86
2022/07/22 03:48:09;;;;;;;10.88;6.30;;;;;;;16.83;100.00;97919.28;1638515;86;21064;-88
2022/07/22 03:50:40;;;;;;;8.43;6.08;;;;;;;16.85;100.00;97920.39;1639208;88;21135;-87
2022/07/22 03:53:07;;;;;;;10.90;6.42;;;;;;;16.85;100.00;97917.66;1638929;88;21133;-89
2022/07/22 03:55:35;;;;;;;12.93;6.92;;;;;;;16.87;100.00;97921.78;1639216;87;21585;-87
2022/07/22 03:58:04;;;;;;;10.98;6.65;;;;;;;16.91;100.00;97920.71;1640953;87;21096;-90
2022/07/22 04:00:31;;;;;;;10.20;6.50;;;;;;;16.93;100.00;97916.33;1666395;85;21078;-88
2022/07/22 04:03:00;;;;;;;11.18;6.65;;;;;;;16.95;100.00;97912.27;1692747;85;21086;-90
2022/07/22 04:05:46;;;;;;;11.43;6.53;;;;;;;16.98;100.00;97914.99;1737269;82;21052;-89
2022/07/22 04:08:17;;;;;;;12.35;6.60;;;;;;;17.03;100.00;97923.22;1760128;82;21507;-89
2022/07/22 04:10:45;;;;;;;10.65;6.67;;;;;;;17.06;100.00;97918.05;1760049;82;21073;-90
2022/07/22 04:13:12;;;;;;;11.65;6.80;;;;;;;17.10;100.00;97921.63;1759624;82;21056;-86
2022/07/22 04:15:42;;;;;;;10.80;6.67;;;;;;;17.16;100.00;97913.75;1756110;82;21009;-88
2022/07/22 04:18:10;;;;;;;11.25;6.58;;;;;;;17.22;100.00;97912.67;1760148;82;20969;-86
2022/07/22 04:20:38;;;;;;;9.40;6.37;;;;;;;17.25;100.00;97911.59;1759880;81;21095;-87
2022/07/22 04:23:23;;;;;;;10.03;6.33;;;;;;;17.32;100.00;97913.27;1760117;82;21025;-85
2022/07/22 04:25:52;;;;;;;10.05;6.90;;;;;;;17.40;100.00;97912.73;1755764;82;21028;-87
2022/07/22 04:28:19;;;;;;;8.83;6.20;;;;;;;17.48;100.00;97910.05;1759576;82;21048;-88
2022/07/22 04:30:46;;;;;;;10.23;6.42;;;;;;;17.51;100.00;97908.97;1759588;81;21530;-87
2022/07/22 04:33:13;;;;;;;10.85;6.85;;;;;;;17.58;100.00;97907.33;1760156;82;20942;-87
2022/07/22 04:35:43;;;;;;;11.00;6.87;;;;;;;17.62;100.00;97905.72;1759298;81;21017;-87
2022/07/22 04:38:17;;;;;;;10.13;6.78;;;;;;;17.69;100.00;97910.39;1747160;82;21006;-86
2022/07/22 04:40:46;;;;;;;11.55;6.25;;;;;;;17.76;100.00;97915.57;1701364;84;21035;-86
2022/07/22 04:43:14;;;;;;;9.85;6.28;;;;;;;17.85;100.00;97919.44;1705092;84;21075;-86
2022/07/22 04:45:41;;;;;;;9.33;6.40;;;;;;;17.92;100.00;97929.60;1703565;84;21047;-87
2022/07/22 04:48:10;;;;;;;10.78;6.37;;;;;;;17.99;100.00;97933.45;1703221;84;21028;-86
2022/07/22 04:50:38;;;;;;;11.18;5.83;;;;;;;18.06;100.00;97937.27;1703851;84;21126;-84
2022/07/22 04:53:05;;;;;;;9.75;6.20;;;;;;;18.11;100.00;97938.09;1704091;84;21015;-86
2022/07/22 04:55:33;;;;;;;9.13;6.60;;;;;;;18.17;100.00;97937.58;1714426;81;21021;-85
2022/07/22 04:58:00;;;;;;;8.88;6.45;;;;;;;18.22;100.00;97940.31;1763359;81;21059;-85
2022/07/22 05:00:27;;;;;;;8.80;6.50;;;;;;;18.32;100.00;97951.80;1759034;81;21028;-82
2022/07/22 05:02:54;;;;;;;11.80;6.58;;;;;;;18.42;100.00;97944.16;1715300;83;21000;-82
2022/07/22 05:05:22;;;;;;;9.95;6.53;;;;;;;18.56;100.00;97952.09;1732240;82;21512;-82
2022/07/22 05:07:50;;;;;;;9.78;6.85;;;;;;;18.67;100.00;97959.75;1731845;83;21012;-81
2022/07/22 05:10:18;;;;;;;20.08;12.25;;;;;;;18.73;100.00;97962.73;1731885;82;21392;-80
2022/07/22 05:12:45;;;;;;;20.97;13.65;;;;;;;18.78;100.00;97967.66;1691713;83;21490;-77
2022/07/22 05:15:13;;;;;;;162.43;146.28;;;;;;;18.82;100.00;97978.09;1731867;83;21052;-77
2022/07/22 05:17:41;;;;;;;21.55;15.75;;;;;;;18.88;100.00;97986.59;1732015;81;21079;-76
2022/07/22 05:20:17;;;;;;;20.88;13.53;;;;;;;18.91;100.00;97990.97;1729759;83;21028;-82
2022/07/22 05:22:46;;;;;;;17.17;11.38;;;;;;;18.91;100.00;98004.66;1732358;82;21153;-80
2022/07/22 05:25:15;;;;;;;248.47;215.85;;;;;;;18.89;100.00;98018.34;1731908;82;21060;-82
2022/07/22 05:27:52;;;;;;;49.03;43.50;;;;;;;18.88;100.00;98033.14;1732501;81;21012;-81
2022/07/22 05:30:21;;;;;;;18.07;12.10;;;;;;;18.87;100.00;98039.14;1732352;83;21024;-79
2022/07/22 05:32:49;;;;;;;19.87;14.80;;;;;;;18.87;100.00;98049.28;1731755;82;21064;-82
2022/07/22 05:35:18;;;;;;;51.68;38.15;;;;;;;18.93;100.00;98060.52;1715162;83;21133;-80
2022/07/22 05:37:46;;;;;;;193.85;173.68;;;;;;;19.05;100.00;98072.03;1746423;81;21006;-81
2022/07/22 05:40:13;;;;;;;33.48;29.32;;;;;;;19.19;100.00;98081.86;1731833;83;21017;-82
2022/07/22 05:42:42;;;;;;;18.52;12.73;;;;;;;19.23;100.00;98098.56;1776974;81;20971;-78
2022/07/22 05:45:12;;;;;;;8.98;7.17;;;;;;;19.26;100.00;98122.68;1771827;81;20988;-78
2022/07/22 05:47:39;;;;;;;6.50;5.60;;;;;;;19.27;100.00;98147.06;1775417;81;21481;-75
2022/07/22 05:50:07;;;;;;;7.58;5.92;;;;;;;19.28;100.00;98171.17;1775944;81;20982;-75
2022/07/22 05:52:36;;;;;;;8.08;5.80;;;;;;;19.29;100.00;98202.41;1775767;81;20967;-72
2022/07/22 05:55:04;;;;;;;7.95;5.60;;;;;;;19.41;100.00;98214.48;1775927;81;20999;-72
2022/07/22 05:57:32;;;;;;;21.42;12.93;;;;;;;19.70;100.00;98231.19;1775696;80;21069;-71
2022/07/22 05:59:59;;;;;;;9.05;6.08;;;;;;;20.02;100.00;98253.41;1775704;81;21005;-73
2022/07/22 06:02:26;;;;;;;9.63;5.50;;;;;;;20.29;100.00;98265.98;1775719;81;21488;-73
2022/07/22 06:04:54;;;;;;;11.50;7.65;;;;;;;20.53;100.00;98303.82;1775959;80;20967;-73
2022/07/22 06:07:22;;;;;;;15.18;9.08;;;;;;;20.73;100.00;98332.61;1776068;81;20935;-75
2022/07/22 06:09:51;;;;;;;8.10;6.20;;;;;;;20.97;100.00;98350.67;1775787;81;20987;-76
2022/07/22 06:12:18;;;;;;;13.30;6.10;;;;;;;21.26;100.00;98371.16;1776180;81;20986;-80
2022/07/22 06:14:46;;;;;;;8.28;6.00;;;;;;;21.45;100.00;98385.10;1733141;81;21497;-79
2022/07/22 06:17:14;;;;;;;9.50;5.60;;;;;;;21.60;100.00;98404.28;1742726;81;21008;-79
2022/07/22 06:19:42;;;;;;;6.42;4.90;;;;;;;21.72;100.00;98434.20;1728607;83;21028;-78
2022/07/22 06:22:10;;;;;;;7.53;5.50;;;;;;;21.72;100.00;98463.91;1727280;83;20999;-82
2022/07/22 06:24:37;;;;;;;6.65;4.70;;;;;;;21.65;100.00;98483.20;1726566;83;21043;-84
2022/07/22 06:27:04;;;;;;;5.17;4.50;;;;;;;21.49;100.00;98511.31;1726759;83;21545;-80
2022/07/22 06:29:31;;;;;;;8.00;4.85;;;;;;;21.28;100.00;98542.12;1726453;82;21055;-84
2022/07/22 06:31:58;;;;;;;6.28;4.80;;;;;;;21.11;100.00;98550.69;1727498;83;21077;-81
2022/07/22 06:34:25;;;;;;;5.80;4.40;;;;;;;20.93;100.00;98569.91;1731376;82;21002;-79
2022/07/22 06:36:54;;;;;;;10.18;5.00;;;;;;;20.81;100.00;98575.14;1681542;84;21573;-78
2022/07/22 06:39:21;;;;;;;6.05;5.20;;;;;;;20.82;100.00;98577.32;1714390;84;21043;-81
2022/07/22 06:41:48;;;;;;;8.53;5.12;;;;;;;20.86;100.00;98572.95;1715306;84;21051;-80
2022/07/22 06:44:17;;;;;;;7.28;4.83;;;;;;;20.99;100.00;98559.20;1660704;86;21094;-80
2022/07/22 06:47:03;;;;;;;7.65;4.80;;;;;;;21.01;100.00;98570.18;1634325;84;21101;-79
2022/07/22 06:49:30;;;;;;;6.42;4.90;;;;;;;21.00;100.00;98568.55;1634476;88;21041;-81
2022/07/22 06:51:57;;;;;;;6.97;4.85;;;;;;;21.12;100.00;98560.56;1631947;88;21128;-81
2022/07/22 06:54:24;;;;;;;7.87;4.60;;;;;;;21.39;100.00;98546.52;1631613;88;21148;-79
2022/07/22 06:56:52;;;;;;;8.55;5.20;;;;;;;21.82;100.00;98535.13;1650201;87;21087;-80
2022/07/22 06:59:22;;;;;;;13.72;7.05;;;;;;;22.32;100.00;98531.86;1657723;87;21039;-80
2022/07/22 07:01:49;;;;;;;11.68;7.28;;;;;;;22.81;100.00;98530.95;1657350;87;21117;-79
2022/07/22 07:04:18;;;;;;;10.23;5.35;;;;;;;23.25;100.00;98546.58;1657782;87;21043;-79
2022/07/22 07:06:45;;;;;;;8.13;4.20;;;;;;;23.57;100.00;98561.69;1657071;87;21601;-83
2022/07/22 07:09:18;;;;;;;4.37;3.98;;;;;;;23.63;100.00;98605.21;1654398;87;21082;-79
2022/07/22 07:11:47;;;;;;;8.95;4.80;;;;;;;23.47;100.00;98638.46;1654715;87;21058;-78
2022/07/22 07:14:16;;;;;;;7.50;4.70;;;;;;;23.21;100.00;98663.23;1653543;87;21604;-77
2022/07/22 07:16:43;;;;;;;6.92;4.47;;;;;;;22.96;100.00;98678.00;1657939;87;20999;-78
2022/07/22 07:19:14;;;;;;;6.85;4.28;;;;;;;22.80;100.00;98686.92;1635454;87;21067;-77
2022/07/22 07:21:42;;;;;;;4.90;4.12;;;;;;;22.90;100.00;98676.66;1659227;86;21514;-80
2022/07/22 07:24:09;;;;;;;5.35;4.22;;;;;;;23.17;100.00;98669.06;1660810;86;21114;-79
2022/07/22 07:26:36;;;;;;;4.92;3.87;;;;;;;23.39;100.00;98685.99;1659865;86;21600;-81
2022/07/22 07:29:03;;;;;;;16.30;7.20;;;;;;;23.52;100.00;98708.51;1660616;86;21068;-77
2022/07/22 07:31:34;;;;;;;73.52;65.72;;;;;;;23.71;100.00;98709.44;1659671;86;21051;-78
2022/07/22 07:34:03;;;;;;;75.72;60.60;;;;;;;24.03;100.00;98703.92;1659696;86;21097;-82
2022/07/22 07:36:31;;;;;;;21.45;14.65;;;;;;;24.39;100.00;98708.45;1665913;84;21640;-79
2022/07/22 07:39:00;;;;;;;457.02;350.20;;;;;;;24.85;100.00;98713.98;1708610;81;21021;-79
2022/07/22 07:41:29;;;;;;;72.67;65.67;;;;;;;25.27;100.00;98732.20;1725631;83;21042;-79
2022/07/22 07:43:58;;;;;;;26.17;21.82;;;;;;;25.37;100.00;98782.70;1729926;83;21535;-79
2022/07/22 07:46:25;;;;;;;12.45;9.20;;;;;;;25.20;100.00;98805.87;1729844;83;21076;-76
2022/07/22 07:48:52;;;;;;;8.00;4.80;;;;;;;25.03;100.00;98808.31;1726731;83;21021;-77
2022/07/22 07:51:20;;;;;;;6.08;4.12;;;;;;;24.96;100.00;98815.02;1726335;83;21038;-77
2022/07/22 07:57:48;;;;;;;8.03;4.50;;;;;;;24.78;100.00;98840.68;1763463;77;21662;-71
2022/07/22 08:00:16;;;;;;;4.90;3.80;;;;;;;24.75;100.00;98846.79;1747024;80;21007;-72
2022/07/22 08:02:44;;;;;;;4.95;3.42;;;;;;;24.80;100.00;98850.31;1734753;82;21011;-71
2022/07/22 08:05:11;;;;;;;6.50;4.03;;;;;;;24.99;100.00;98853.70;1746616;81;21004;-73
2022/07/22 08:07:38;;;;;;;5.25;3.30;;;;;;;25.24;100.00;98865.56;1748568;82;20995;-74
2022/07/22 08:10:06;;;;;;;5.12;4.00;;;;;;;25.39;100.00;98881.44;1752944;79;21060;-74
2022/07/22 08:12:54;;;;;;;13.15;8.85;;;;;;;25.53;100.00;98889.83;1658311;86;21158;-74
2022/07/22 08:15:35;;;;;;;3.37;3.10;;;;;;;25.63;100.00;98910.17;1658879;86;21098;-74
2022/07/22 08:18:07;;;;;;;6.80;3.60;;;;;;;25.56;100.00;98924.38;1639393;86;21022;-73
2022/07/22 08:20:34;;;;;;;7.62;4.60;;;;;;;25.36;100.00;98951.75;1634172;87;21022;-72
2022/07/22 08:23:00;;;;;;;9.45;3.62;;;;;;;25.23;100.00;98946.89;1620985;87;21055;-73
2022/07/22 08:25:29;;;;;;;5.28;3.20;;;;;;;25.36;100.00;98947.04;1620045;88;21027;-72
2022/07/22 08:27:56;;;;;;;6.47;3.30;;;;;;;25.42;100.00;98962.20;1621164;88;21054;-72
2022/07/22 08:30:26;;;;;;;6.15;3.58;;;;;;;25.27;100.00;98970.95;1621084;88;21205;-73
2022/07/22 08:32:53;;;;;;;4.72;3.70;;;;;;;25.15;100.00;98971.31;1619882;88;21039;-74
2022/07/22 08:35:21;;;;;;;4.53;3.35;;;;;;;25.16;100.00;98974.89;1624469;86;21145;-73
2022/07/22 08:37:48;;;;;;;9.73;4.72;;;;;;;25.11;100.00;98970.83;1653554;86;21074;-72
2022/07/22 08:40:16;;;;;;;5.30;4.72;;;;;;;25.04;100.00;98979.47;1647531;86;21069;-73
2022/07/22 08:42:44;;;;;;;4.30;3.90;;;;;;;24.86;100.00;98996.23;1648059;87;21054;-73
2022/07/22 08:45:12;;;;;;;4.28;3.67;;;;;;;24.57;100.00;98998.41;1649168;87;21038;-72
2022/07/22 08:47:38;;;;;;;5.33;3.50;;;;;;;24.46;100.00;98976.09;1651333;87;20998;-72
2022/07/22 08:50:10;;;;;;;7.42;3.40;;;;;;;24.72;100.00;98949.63;1653803;86;21042;-77
2022/07/22 08:52:43;;;;;;;8.20;3.77;;;;;;;25.14;100.00;98950.33;1652730;86;21635;-78
2022/07/22 08:55:10;;;;;;;4.90;3.80;;;;;;;25.64;100.00;98975.47;1649295;87;21056;-76
2022/07/22 08:57:37;;;;;;;7.33;3.40;;;;;;;26.14;100.00;98965.66;1649300;87;21030;-78
2022/07/22 09:00:14;;;;;;;3.72;3.35;;;;;;;26.52;100.00;98995.27;1683470;82;21069;-80
2022/07/22 09:02:42;;;;;;;5.28;3.40;;;;;;;26.55;100.00;99014.64;1743245;82;21058;-78
2022/07/22 09:05:14;;;;;;;3.22;2.95;;;;;;;26.56;100.00;99025.97;1740814;82;21049;-81
2022/07/22 09:07:43;;;;;;;3.37;3.10;;;;;;;26.76;100.00;99037.34;1741104;82;21519;-76
2022/07/22 09:10:19;;;;;;;5.58;3.22;;;;;;;26.98;100.00;99054.70;1673377;85;21163;-77
2022/07/22 09:12:59;;;;;;;3.47;3.10;;;;;;;27.11;100.00;99066.42;1642359;87;21065;-83
2022/07/22 09:15:36;;;;;;;32.80;23.92;;;;;;;27.01;100.00;99116.52;1583440;91;21099;-80
2022/07/22 09:18:21;;;;;;;8.78;5.45;;;;;;;26.81;100.00;99153.73;1582850;91;21091;-79
2022/07/22 09:20:58;;;;;;;6.12;3.80;;;;;;;26.55;100.00;99182.34;1574595;91;20994;-78
2022/07/22 09:23:32;;;;;;;6.00;3.30;;;;;;;26.45;100.00;99181.33;1494632;95;21148;-76
2022/07/22 09:25:59;;;;;;;4.50;3.22;;;;;;;26.49;100.00;99196.27;1510264;95;21050;-78
2022/07/22 09:28:55;;;;;;;3.58;2.98;;;;;;;26.41;100.00;99211.34;1507785;95;21134;-77
2022/07/22 09:31:31;;;;;;;5.08;3.12;;;;;;;26.22;100.00;99224.56;1557634;92;21095;-77
2022/07/22 09:34:01;;;;;;;7.17;4.33;;;;;;;26.10;100.00;99226.92;1517673;95;21145;-77
2022/07/22 09:36:30;;;;;;;41.83;37.05;;;;;;;26.24;100.00;99225.13;1517724;95;21119;-76
2022/07/22 09:38:57;;;;;;;15.43;11.25;;;;;;;26.51;100.00;99228.67;1507329;95;21124;-77
2022/07/22 09:41:25;;;;;;;9.40;7.35;;;;;;;26.80;100.00;99243.01;1511289;95;21019;-77
2022/07/22 09:43:53;;;;;;;8.65;5.87;;;;;;;27.11;100.00;99250.06;1512441;95;21572;-76
2022/07/22 09:46:36;;;;;;;4.45;3.37;;;;;;;27.25;100.00;99255.97;1510961;95;21073;-77
2022/07/22 09:49:04;;;;;;;3.80;2.75;;;;;;;27.33;100.00;99264.77;1527522;93;21168;-78
2022/07/22 09:51:42;;;;;;;2.98;2.70;;;;;;;27.25;100.00;99267.61;1515238;94;21107;-76
2022/07/22 09:54:20;;;;;;;4.75;3.05;;;;;;;26.97;100.00;99275.80;1551624;92;21106;-80
2022/07/22 09:56:48;;;;;;;3.40;3.02;;;;;;;26.99;100.00;99267.18;1551457;92;21087;-77
2022/07/22 09:59:17;;;;;;;3.37;2.67;;;;;;;27.21;100.00;99272.13;1557978;91;21082;-79
2022/07/22 10:01:46;;;;;;;12.03;6.47;;;;;;;27.37;100.00;99279.11;1580488;91;21176;-76
2022/07/22 10:04:12;;;;;;;6.62;4.03;;;;;;;27.25;100.00;99292.05;1561114;91;21046;-76
2022/07/22 10:06:41;;;;;;;3.60;3.15;;;;;;;27.16;100.00;99280.52;1581015;91;21528;-75
2022/07/22 10:09:09;;;;;;;8.70;4.47;;;;;;;27.33;100.00;99293.91;1544448;92;21028;-76
2022/07/22 10:11:37;;;;;;;7.92;4.70;;;;;;;27.46;100.00;99285.66;1533979;93;21567;-75
2022/07/22 10:14:05;;;;;;;5.08;3.40;;;;;;;27.69;100.00;99286.39;1518868;94;21086;-75
2022/07/22 10:16:31;;;;;;;6.58;3.20;;;;;;;27.87;100.00;99286.09;1518976;94;21211;-76
2022/07/22 10:18:59;;;;;;;5.10;3.27;;;;;;;28.04;100.00;99287.76;1527731;94;21141;-74
2022/07/22 10:21:33;;;;;;;5.10;3.50;;;;;;;28.19;100.00;99293.05;1597149;90;21907;-74
2022/07/22 10:24:17;;;;;;;14.35;11.22;;;;;;;28.26;100.00;99287.09;1597216;90;21627;-75
2022/07/22 10:26:55;;;;;;;9.05;5.75;;;;;;;28.04;100.00;99312.77;1563916;92;21095;-77
2022/07/22 10:29:28;;;;;;;12.50;6.67;;;;;;;27.55;100.00;99315.48;1565349;92;21560;-76
2022/07/22 10:32:21;;;;;;;4.72;3.80;;;;;;;26.93;100.00;99322.45;1499005;96;21049;-73
2022/07/22 10:35:06;;;;;;;3.65;3.10;;;;;;;26.34;100.00;99320.59;1497978;96;21117;-75
2022/07/22 10:37:43;;;;;;;12.28;7.45;;;;;;;25.81;100.00;99312.77;1491091;96;21121;-77
2022/07/22 10:40:31;;;;;;;10.88;8.33;;;;;;;25.47;100.00;99299.18;1459131;97;21138;-78
2022/07/22 10:43:03;;;;;;;9.55;3.75;;;;;;;25.58;100.00;99283.32;1480987;96;21171;-76
2022/07/22 10:45:51;;;;;;;3.35;3.05;;;;;;;26.03;100.00;99279.08;1497165;96;21119;-74
2022/07/22 10:48:26;;;;;;;3.25;2.70;;;;;;;26.50;100.00;99280.23;1454632;98;21476;-75
2022/07/22 10:51:00;;;;;;;3.92;3.20;;;;;;;26.97;100.00;99281.34;1456111;98;21125;-76
2022/07/22 10:53:57;;;;;;;3.95;3.00;;;;;;;27.46;100.00;99293.14;1455201;98;21162;-77
2022/07/22 10:56:33;;;;;;;4.15;2.65;;;;;;;27.92;100.00;99294.37;1455322;98;21154;-76
2022/07/22 10:59:12;;;;;;;4.30;3.17;;;;;;;28.35;100.00;99303.89;1442972;97;21120;-79
2022/07/22 11:01:42;;;;;;;4.37;3.35;;;;;;;28.69;100.00;99307.67;1468408;97;21181;-76
2022/07/22 11:04:24;;;;;;;6.47;3.92;;;;;;;29.03;100.00;99306.40;1475432;96;21051;-75
2022/07/22 11:06:56;;;;;;;4.40;3.10;;;;;;;29.35;100.00;99312.95;1430544;100;21144;-75
2022/07/22 11:09:34;;;;;;;4.22;3.20;;;;;;;29.53;100.00;99325.06;1437879;100;21108;-76
2022/07/22 11:12:02;;;;;;;6.80;4.37;;;;;;;29.53;100.00;99327.84;1437166;100;21143;-74
2022/07/22 11:14:33;;;;;;;4.85;3.40;;;;;;;29.50;100.00;99336.27;1459626;98;21226;-80
2022/07/22 11:17:07;;;;;;;13.98;4.60;;;;;;;29.67;100.00;99326.41;1458280;98;21644;-78
2022/07/22 11:19:38;;;;;;;8.08;3.20;;;;;;;29.86;100.00;99341.00;1458091;98;21089;-78
2022/07/22 11:22:08;;;;;;;7.42;5.25;;;;;;;29.67;100.00;99357.86;1457753;98;21151;-78
2022/07/22 11:24:35;;;;;;;8.05;4.65;;;;;;;29.26;100.00;99357.41;1486233;96;21072;-77
2022/07/22 11:27:03;;;;;;;8.60;3.92;;;;;;;28.79;100.00;99366.43;1538753;93;21100;-78
2022/07/22 11:29:37;;;;;;;7.78;3.40;;;;;;;28.34;100.00;99362.80;1560442;91;21509;-78
2022/07/22 11:32:06;;;;;;;5.70;3.42;;;;;;;28.05;100.00;99358.89;1628719;88;21013;-78
2022/07/22 11:34:36;;;;;;;2.65;2.45;;;;;;;28.07;100.00;99346.08;1629310;88;21071;-79
2022/07/22 11:37:03;;;;;;;4.08;2.75;;;;;;;28.30;100.00;99343.70;1628852;88;21041;-78